Bedford, MT

2:55 PM MST on January 19, 2017 (GMT -0700)
MGINM8 | | Change Station

Elev 4368 ft 46.33 °N, 111.59 °W | Updated 28 minutes ago

Scattered Clouds
Scattered Clouds
41.0 °F
Feels Like 31 °F
N
22.0
Wind Variable Wind from SSW
Gusts 30.0 mph

Today
High -- | Low -- °F
--% Chance of Precip.
Yesterday
High -- | Low -- °F
Precip. -- in
Pressure 29.61 in
Visibility 10.0 miles
Clouds Scattered Clouds 7500 ft
Windchill 31 °F
Dew Point 26.0 °F
Humidity 55%
Rainfall in
Snow Depth Not available.
8:02 AM 5:12 PM
Waning Gibbous, 50% visible
METAR KHLN 192053Z 00000KT 10SM SCT075 04/M04 A2950 RMK AO2 SLP027 T00391044 56018
Pressure 29.61 in
Visibility 10.0 miles
Clouds Scattered Clouds 7500 ft
Windchill 31 °F
Dew Point 26.0 °F
Humidity 55%
Rainfall in
Snow Depth Not available.
8:02 AM 5:12 PM
Waning Gibbous, 50% visible
METAR KHLN 192053Z 00000KT 10SM SCT075 04/M04 A2950 RMK AO2 SLP027 T00391044 56018

Get Your Daily Forecast Email!

Thanks for signing up!

Be on the lookout for a verification email in your inbox.

You'll start receiving the daily forecast at 8 AM.

×

10-Day Weather Forecast

Almanac

Astronomy

Jan. 19, 2017 Rise Set
Actual Time
Civil Twilight
Nautical Twilight
Astronomical Twilight
Moon
Length of Visible Light
Length of Day
Tomorrow will be .
, % of the Moon is Illuminated

Today's Extremes

State Highs State Lows

Community

WunderPhotos

Upload Photos

1,962,540 photos uploaded!

WunderBlog® & News

Nearby

Air Quality

  Air Quality AQ Index Pollutant
Not available.

Snow Depth

Station Depth Elevation

Earthquake Activity

City Distance Mag. Time & Date
Minimum magnitude displayed is 2.5.

Coastal Water Temperatures

Place Temperature

Stations

Nearby Weather Stations

Station Location Temp. Windchill Dew Point Humidity Wind Precip. Elev Updated Type
                   

Watches & Warnings

There are currently no watches in effect.